createdAt,value
2018-03-03T00:00:36.215Z,-7.16
2018-03-03T00:03:05.585Z,-7.19
2018-03-03T00:05:36.599Z,-7.23
2018-03-03T00:08:06.085Z,-7.27
2018-03-03T00:10:35.596Z,-7.29
2018-03-03T00:13:05.580Z,-7.32
2018-03-03T00:15:34.788Z,-7.36
2018-03-03T00:18:07.112Z,-7.38
2018-03-03T00:20:37.233Z,-7.40
2018-03-03T00:23:09.124Z,-7.42
2018-03-03T00:25:39.256Z,-7.45
2018-03-03T00:28:10.923Z,-7.47
2018-03-03T00:30:43.385Z,-7.50
2018-03-03T00:33:12.899Z,-7.53
2018-03-03T00:35:42.696Z,-7.54
2018-03-03T00:38:15.607Z,-7.57
2018-03-03T00:40:45.610Z,-7.59
2018-03-03T00:43:18.744Z,-7.62
2018-03-03T00:45:48.455Z,-7.65
2018-03-03T00:48:18.109Z,-7.65
2018-03-03T00:50:47.255Z,-7.69
2018-03-03T00:53:18.544Z,-7.71
2018-03-03T00:55:49.305Z,-7.75
2018-03-03T00:58:20.244Z,-7.76
2018-03-03T01:00:52.900Z,-7.79
2018-03-03T01:03:28.461Z,-7.82
2018-03-03T01:05:58.084Z,-7.82
2018-03-03T01:08:28.420Z,-7.85
2018-03-03T01:11:06.320Z,-7.86
2018-03-03T01:13:36.652Z,-7.88
2018-03-03T01:16:05.863Z,-7.90
2018-03-03T01:18:35.503Z,-7.93
2018-03-03T01:21:04.872Z,-7.94
2018-03-03T01:23:35.583Z,-7.99
2018-03-03T01:26:06.579Z,-7.99
2018-03-03T01:28:36.949Z,-8.00
2018-03-03T01:31:07.219Z,-8.03
2018-03-03T01:33:36.816Z,-8.04
2018-03-03T01:36:06.058Z,-8.05
2018-03-03T01:38:36.440Z,-8.05
2018-03-03T01:41:07.681Z,-8.11
2018-03-03T01:43:39.248Z,-8.09
2018-03-03T01:46:09.269Z,-8.11
2018-03-03T01:48:40.884Z,-8.15
2018-03-03T01:54:08.484Z,-8.19
2018-03-03T01:56:37.417Z,-8.21
2018-03-03T01:59:06.230Z,-8.23
2018-03-03T02:01:35.291Z,-8.25
2018-03-03T02:04:04.104Z,-8.27
2018-03-03T02:06:33.010Z,-8.29
2018-03-03T02:09:01.870Z,-8.31
2018-03-03T02:11:30.647Z,-8.33
2018-03-03T02:13:59.727Z,-8.38
2018-03-03T02:16:28.931Z,-8.38
2018-03-03T02:18:58.085Z,-8.40
2018-03-03T02:21:27.161Z,-8.43
2018-03-03T02:23:56.403Z,-8.45
2018-03-03T02:26:25.669Z,-8.46
2018-03-03T02:28:54.748Z,-8.49
2018-03-03T02:31:23.902Z,-8.54
2018-03-03T02:33:53.520Z,-8.56
2018-03-03T02:36:23.995Z,-8.59
2018-03-03T02:38:54.171Z,-8.59
2018-03-03T02:41:24.900Z,-8.61
2018-03-03T02:43:55.389Z,-8.63
2018-03-03T02:46:26.889Z,-8.74
2018-03-03T02:48:58.457Z,-8.69
2018-03-03T02:51:28.835Z,-8.71
2018-03-03T02:54:01.242Z,-8.72
2018-03-03T02:56:31.648Z,-8.73
2018-03-03T02:59:03.405Z,-8.75
2018-03-03T03:01:32.596Z,-8.78
2018-03-03T03:04:02.603Z,-8.80
2018-03-03T03:06:33.413Z,-8.83
2018-03-03T03:09:04.832Z,-8.85
2018-03-03T03:11:34.350Z,-8.86
2018-03-03T03:14:06.181Z,-8.91
2018-03-03T03:16:36.842Z,-8.90
2018-03-03T03:19:07.763Z,-8.96
2018-03-03T03:21:39.133Z,-8.94
2018-03-03T03:24:09.732Z,-8.97
2018-03-03T03:26:41.065Z,-8.96
2018-03-03T03:29:11.688Z,-8.98
2018-03-03T03:31:42.646Z,-9.01
2018-03-03T03:34:11.743Z,-9.02
2018-03-03T03:36:42.567Z,-9.04
2018-03-03T03:39:13.769Z,-9.05
2018-03-03T03:41:42.955Z,-9.08
2018-03-03T03:44:11.745Z,-9.09
2018-03-03T03:46:40.823Z,-9.10
2018-03-03T03:49:09.675Z,-9.12
2018-03-03T03:51:39.060Z,-9.14
2018-03-03T03:54:07.975Z,-9.16
2018-03-03T03:56:36.915Z,-9.20
2018-03-03T03:59:05.980Z,-9.21
2018-03-03T04:01:35.087Z,-9.23
2018-03-03T04:04:04.123Z,-9.24
2018-03-03T04:06:32.996Z,-9.25
2018-03-03T04:09:02.504Z,-9.27
2018-03-03T04:11:31.351Z,-9.29
2018-03-03T04:14:00.141Z,-9.31
2018-03-03T04:16:28.936Z,-9.33
2018-03-03T04:18:58.904Z,-9.35
2018-03-03T04:21:27.960Z,-9.35
2018-03-03T04:23:56.719Z,-9.36
2018-03-03T04:26:25.564Z,-9.39
2018-03-03T04:28:54.292Z,-9.41
2018-03-03T04:31:23.448Z,-9.44
2018-03-03T04:33:52.558Z,-9.45
2018-03-03T04:36:21.300Z,-9.48
2018-03-03T04:38:50.243Z,-9.51
2018-03-03T04:41:19.116Z,-9.52
2018-03-03T04:43:48.209Z,-9.54
2018-03-03T04:46:17.016Z,-9.57
2018-03-03T04:48:46.005Z,-9.59
2018-03-03T04:51:14.962Z,-9.59
2018-03-03T04:53:43.637Z,-9.61
2018-03-03T04:56:12.374Z,-9.65
2018-03-03T04:58:41.035Z,-9.64
2018-03-03T05:01:10.388Z,-9.68
2018-03-03T05:06:57.443Z,-9.73
2018-03-03T05:09:26.552Z,-9.73
2018-03-03T05:11:55.207Z,-9.77
2018-03-03T05:14:29.554Z,-9.78
2018-03-03T05:17:00.508Z,-9.80
2018-03-03T05:19:39.408Z,-9.81
2018-03-03T05:25:24.673Z,-9.85
2018-03-03T05:27:59.121Z,-9.89
2018-03-03T05:30:33.297Z,-9.90
2018-03-03T05:33:07.436Z,-9.91
2018-03-03T05:35:40.023Z,-9.93
2018-03-03T05:41:22.098Z,-9.99
2018-03-03T05:43:56.797Z,-9.98
2018-03-03T05:49:35.806Z,-10.02
2018-03-03T05:52:10.207Z,-10.03
2018-03-03T05:54:58.767Z,-10.02
2018-03-03T05:57:33.476Z,-10.03
2018-03-03T06:00:08.944Z,-10.04
2018-03-03T06:02:45.727Z,-10.02
2018-03-03T06:05:20.048Z,-10.01
2018-03-03T06:07:54.588Z,-9.98
2018-03-03T06:10:39.335Z,-9.98
2018-03-03T06:13:08.459Z,-9.96
2018-03-03T06:15:37.624Z,-9.92
2018-03-03T06:18:07.519Z,-9.92
2018-03-03T06:20:36.745Z,-9.87
2018-03-03T06:23:05.846Z,-9.85
2018-03-03T06:25:34.987Z,-9.81
2018-03-03T06:28:03.864Z,-9.80
2018-03-03T06:30:33.147Z,-9.75
2018-03-03T06:33:02.301Z,-9.72
2018-03-03T06:35:31.641Z,-9.72
2018-03-03T06:38:00.753Z,-9.68
2018-03-03T06:40:30.701Z,-9.63
2018-03-03T06:43:00.024Z,-9.58
2018-03-03T06:45:29.120Z,-9.54
2018-03-03T06:47:58.204Z,-9.46
2018-03-03T06:50:27.406Z,-9.37
2018-03-03T06:52:57.431Z,-9.34
2018-03-03T06:55:28.009Z,-9.29
2018-03-03T06:57:59.179Z,-9.21
2018-03-03T07:00:29.675Z,-9.12
2018-03-03T07:02:59.869Z,-9.06
2018-03-03T07:05:30.374Z,-9.08
2018-03-03T07:08:01.653Z,-9.09
2018-03-03T07:10:33.554Z,-9.04
2018-03-03T07:13:04.775Z,-9.10
2018-03-03T07:15:34.129Z,-9.04
2018-03-03T07:18:04.037Z,-8.92
2018-03-03T07:20:34.980Z,-8.85
2018-03-03T07:23:04.056Z,-8.72
2018-03-03T07:25:35.907Z,-8.61
2018-03-03T07:28:09.356Z,-8.64
2018-03-03T07:30:39.102Z,-8.54
2018-03-03T07:33:10.304Z,-8.49
2018-03-03T07:35:39.488Z,-8.48
2018-03-03T07:38:09.763Z,-8.35
2018-03-03T07:40:40.280Z,-8.38
2018-03-03T07:43:10.960Z,-8.27
2018-03-03T07:45:42.294Z,-8.29
2018-03-03T07:48:13.751Z,-8.21
2018-03-03T07:50:43.988Z,-8.08
2018-03-03T07:53:15.945Z,-7.91
2018-03-03T07:55:46.197Z,-7.77
2018-03-03T07:58:28.530Z,-7.64
2018-03-03T08:00:57.650Z,-7.53
2018-03-03T08:03:26.591Z,-7.44
2018-03-03T08:05:55.558Z,-7.27
2018-03-03T08:08:24.623Z,-7.06
2018-03-03T08:10:55.125Z,-7.03
2018-03-03T08:13:26.461Z,-6.90
2018-03-03T08:15:56.264Z,-6.73
2018-03-03T08:18:26.694Z,-6.64
2018-03-03T08:20:57.336Z,-6.43
2018-03-03T08:23:28.612Z,-6.26
2018-03-03T08:25:59.046Z,-6.16
2018-03-03T08:28:29.647Z,-6.10
2018-03-03T08:31:01.202Z,-5.99
2018-03-03T08:33:31.556Z,-5.93
2018-03-03T08:36:02.361Z,-5.86
2018-03-03T08:38:33.994Z,-5.69
2018-03-03T08:41:05.672Z,-5.63
2018-03-03T08:43:35.333Z,-5.50
2018-03-03T08:46:05.616Z,-5.30
2018-03-03T08:48:35.928Z,-5.14
2018-03-03T08:51:06.435Z,-5.07
2018-03-03T08:53:36.962Z,-4.95
2018-03-03T08:56:07.807Z,-4.82
2018-03-03T08:58:39.073Z,-4.76
2018-03-03T09:01:09.554Z,-4.68
2018-03-03T09:03:42.404Z,-4.54
2018-03-03T09:06:13.990Z,-4.33
2018-03-03T09:08:44.506Z,-4.24
2018-03-03T09:11:13.583Z,-4.09
2018-03-03T09:13:42.960Z,-3.95
2018-03-03T09:16:13.450Z,-3.93
2018-03-03T09:18:43.983Z,-3.96
2018-03-03T09:21:13.679Z,-3.97
2018-03-03T09:23:44.732Z,-3.94
2018-03-03T09:26:17.067Z,-3.92
2018-03-03T09:28:49.388Z,-3.98
2018-03-03T09:31:22.300Z,-4.16
2018-03-03T09:33:52.972Z,-4.18
2018-03-03T09:36:22.112Z,-4.23
2018-03-03T09:38:52.351Z,-4.24
2018-03-03T09:41:23.813Z,-4.10
2018-03-03T09:43:54.802Z,-4.12
2018-03-03T09:46:25.663Z,-4.18
2018-03-03T09:48:56.975Z,-4.10
2018-03-03T09:51:27.539Z,-4.22
2018-03-03T09:53:58.992Z,-3.97
2018-03-03T09:56:29.495Z,-3.97
2018-03-03T09:59:00.250Z,-3.98
2018-03-03T10:01:30.579Z,-3.89
2018-03-03T10:04:01.399Z,-3.81
2018-03-03T10:06:32.156Z,-3.95
2018-03-03T10:09:02.944Z,-3.91
2018-03-03T10:11:33.650Z,-3.94
2018-03-03T10:14:04.266Z,-3.77
2018-03-03T10:16:34.862Z,-3.68
2018-03-03T10:19:05.485Z,-3.45
2018-03-03T10:21:35.796Z,-3.30
2018-03-03T10:24:07.440Z,-3.42
2018-03-03T10:26:37.943Z,-3.21
2018-03-03T10:29:08.859Z,-3.03
2018-03-03T10:31:40.051Z,-2.84
2018-03-03T10:34:11.076Z,-2.63
2018-03-03T10:36:41.743Z,-2.50
2018-03-03T10:39:12.624Z,-2.35
2018-03-03T10:41:43.888Z,-2.13
2018-03-03T10:44:14.792Z,-1.96
2018-03-03T10:46:45.712Z,-1.73
2018-03-03T10:49:16.592Z,-1.60
2018-03-03T10:51:47.845Z,-1.39
2018-03-03T10:54:18.755Z,-1.13
2018-03-03T10:56:49.269Z,-1.00
2018-03-03T10:59:19.919Z,-0.94
2018-03-03T11:01:51.617Z,-0.83
2018-03-03T11:04:22.146Z,-0.66
2018-03-03T11:06:52.782Z,-0.53
2018-03-03T11:09:23.709Z,-0.35
2018-03-03T11:11:54.597Z,-0.27
2018-03-03T11:14:24.923Z,-0.17
2018-03-03T11:16:55.556Z,-0.22
2018-03-03T11:19:26.226Z,0.06
2018-03-03T11:21:57.145Z,0.17
2018-03-03T11:24:26.391Z,0.13
2018-03-03T11:26:56.531Z,0.30
2018-03-03T11:29:27.561Z,0.65
2018-03-03T11:31:58.354Z,0.91
2018-03-03T11:34:29.790Z,1.17
2018-03-03T11:36:58.860Z,1.37
2018-03-03T11:39:27.946Z,1.53
2018-03-03T11:41:57.091Z,1.64
2018-03-03T11:44:26.216Z,1.24
2018-03-03T11:46:55.020Z,1.44
2018-03-03T11:49:23.921Z,1.13
2018-03-03T11:51:52.723Z,1.21
2018-03-03T11:54:21.853Z,1.49
2018-03-03T11:56:50.974Z,1.85
2018-03-03T11:59:19.782Z,1.76
2018-03-03T12:01:48.807Z,2.03
2018-03-03T12:04:17.695Z,2.21
2018-03-03T12:06:46.506Z,2.54
2018-03-03T12:09:15.586Z,2.76
2018-03-03T12:11:44.457Z,2.70
2018-03-03T12:14:13.252Z,2.58
2018-03-03T12:16:42.035Z,2.73
2018-03-03T12:19:11.233Z,3.08
2018-03-03T12:21:40.305Z,3.34
2018-03-03T12:24:09.092Z,3.26
2018-03-03T12:26:37.977Z,3.34
2018-03-03T12:29:06.753Z,3.51
2018-03-03T12:31:35.864Z,3.69
2018-03-03T12:34:04.766Z,3.77
2018-03-03T12:36:33.557Z,3.78
2018-03-03T12:39:02.649Z,3.66
2018-03-03T12:41:31.752Z,3.87
2018-03-03T12:44:00.794Z,3.34
2018-03-03T12:46:29.738Z,3.45
2018-03-03T12:48:58.811Z,3.72
2018-03-03T12:51:27.737Z,3.96
2018-03-03T12:53:56.873Z,4.10
2018-03-03T12:56:25.907Z,4.13
2018-03-03T12:58:54.688Z,4.11
2018-03-03T13:01:23.827Z,4.22
2018-03-03T13:03:52.724Z,4.33
2018-03-03T13:06:21.697Z,4.09
2018-03-03T13:08:50.683Z,3.93
2018-03-03T13:11:19.892Z,3.81
2018-03-03T13:13:48.968Z,3.85
2018-03-03T13:16:17.749Z,3.98
2018-03-03T13:18:46.795Z,4.16
2018-03-03T13:21:15.578Z,3.99
2018-03-03T13:23:44.719Z,4.03
2018-03-03T13:26:13.601Z,4.00
2018-03-03T13:28:42.751Z,3.95
2018-03-03T13:31:11.796Z,3.63
2018-03-03T13:33:40.643Z,3.69
2018-03-03T13:36:09.545Z,3.82
2018-03-03T13:38:38.328Z,3.33
2018-03-03T13:41:07.463Z,3.48
2018-03-03T13:43:36.480Z,3.34
2018-03-03T13:46:05.284Z,3.10
2018-03-03T13:48:34.235Z,3.09
2018-03-03T13:51:03.012Z,2.89
2018-03-03T13:53:31.827Z,3.04
2018-03-03T13:56:00.673Z,2.99
2018-03-03T13:58:29.778Z,2.75
2018-03-03T14:00:58.804Z,2.31
2018-03-03T14:03:27.713Z,2.40
2018-03-03T14:05:56.688Z,2.62
2018-03-03T14:08:25.584Z,2.78
2018-03-03T14:10:54.600Z,2.74
2018-03-03T14:13:23.496Z,2.80
2018-03-03T14:15:52.348Z,3.03
2018-03-03T14:18:21.555Z,3.23
2018-03-03T14:20:50.642Z,3.33
2018-03-03T14:23:19.532Z,3.40
2018-03-03T14:25:48.683Z,3.54
2018-03-03T14:28:33.242Z,3.64
2018-03-03T14:31:02.535Z,3.53
2018-03-03T14:33:31.526Z,3.37
2018-03-03T14:36:00.689Z,3.21
2018-03-03T14:38:29.543Z,3.21
2018-03-03T14:40:58.631Z,3.17
2018-03-03T14:43:27.567Z,3.16
2018-03-03T14:45:56.701Z,3.06
2018-03-03T14:48:25.805Z,3.18
2018-03-03T14:50:54.888Z,2.99
2018-03-03T14:53:24.044Z,2.95
2018-03-03T14:55:53.136Z,3.02
2018-03-03T14:58:22.220Z,3.10
2018-03-03T15:00:51.616Z,3.11
2018-03-03T15:03:20.554Z,2.95
2018-03-03T15:05:50.149Z,3.11
2018-03-03T15:08:20.959Z,3.29
2018-03-03T15:10:50.451Z,3.24
2018-03-03T15:13:21.892Z,3.24
2018-03-03T15:15:52.580Z,3.20
2018-03-03T15:18:24.072Z,3.12
2018-03-03T15:20:54.422Z,3.03
2018-03-03T15:23:25.679Z,3.12
2018-03-03T15:25:58.452Z,3.21
2018-03-03T15:28:28.280Z,3.21
2018-03-03T15:31:01.065Z,3.06
2018-03-03T15:33:30.888Z,2.99
2018-03-03T15:36:01.256Z,2.77
2018-03-03T15:38:31.561Z,2.74
2018-03-03T15:41:01.956Z,2.36
2018-03-03T15:43:36.823Z,2.24
2018-03-03T15:46:06.144Z,1.74
2018-03-03T15:48:35.770Z,1.69
2018-03-03T15:51:06.340Z,1.69
2018-03-03T15:53:36.838Z,1.57
2018-03-03T15:56:08.375Z,1.32
2018-03-03T15:58:38.888Z,1.20
2018-03-03T16:01:09.902Z,1.21
2018-03-03T16:03:40.716Z,1.20
2018-03-03T16:06:11.667Z,1.08
2018-03-03T16:08:42.628Z,1.03
2018-03-03T16:11:13.209Z,0.70
2018-03-03T16:13:43.987Z,0.81
2018-03-03T16:16:14.888Z,0.70
2018-03-03T16:18:45.691Z,0.82
2018-03-03T16:21:16.344Z,0.74
2018-03-03T16:23:47.835Z,0.60
2018-03-03T16:26:21.201Z,0.42
2018-03-03T16:28:50.613Z,0.39
2018-03-03T16:31:21.034Z,0.34
2018-03-03T16:33:51.973Z,0.28
2018-03-03T16:36:24.677Z,0.30
2018-03-03T16:38:55.814Z,0.08
2018-03-03T16:41:25.696Z,0.14
2018-03-03T16:43:55.205Z,0.08
2018-03-03T16:46:25.890Z,0.49
2018-03-03T16:48:55.714Z,0.51
2018-03-03T16:51:26.430Z,0.36
2018-03-03T16:53:57.074Z,0.14
2018-03-03T16:56:27.515Z,0.05
2018-03-03T16:58:58.128Z,0.00
2018-03-03T17:01:29.693Z,-0.07
2018-03-03T17:04:00.216Z,-0.17
2018-03-03T17:06:31.224Z,-0.22
2018-03-03T17:09:02.143Z,-0.32
2018-03-03T17:11:33.552Z,-0.37
2018-03-03T17:14:04.209Z,-0.45
2018-03-03T17:16:35.121Z,-0.52
2018-03-03T17:19:06.487Z,-0.48
2018-03-03T17:21:37.128Z,-0.67
2018-03-03T17:24:08.405Z,-0.75
2018-03-03T17:26:39.180Z,-0.80
2018-03-03T17:29:10.475Z,-0.86
2018-03-03T17:31:42.109Z,-0.81
2018-03-03T17:34:12.822Z,-0.88
2018-03-03T17:36:43.758Z,-0.93
2018-03-03T17:39:14.251Z,-1.03
2018-03-03T17:41:44.929Z,-1.12
2018-03-03T17:44:15.784Z,-1.19
2018-03-03T17:46:46.719Z,-1.26
2018-03-03T17:49:17.651Z,-1.30
2018-03-03T17:51:48.621Z,-1.35
2018-03-03T17:54:19.909Z,-1.41
2018-03-03T17:56:50.815Z,-1.45
2018-03-03T17:59:21.744Z,-1.49
2018-03-03T18:01:52.735Z,-1.56
2018-03-03T18:04:23.671Z,-1.63
2018-03-03T18:06:54.916Z,-1.68
2018-03-03T18:09:25.832Z,-1.73
2018-03-03T18:12:00.693Z,-1.81
2018-03-03T18:14:30.020Z,-1.85
2018-03-03T18:16:59.562Z,-1.93
2018-03-03T18:19:46.134Z,-2.01
2018-03-03T18:22:16.636Z,-2.06
2018-03-03T18:24:46.098Z,-1.96
2018-03-03T18:27:16.208Z,-2.02
2018-03-03T18:29:45.391Z,-1.94
2018-03-03T18:32:14.532Z,-2.04
2018-03-03T18:34:43.710Z,-1.92
2018-03-03T18:37:13.026Z,-2.02
2018-03-03T18:39:42.272Z,-2.13
2018-03-03T18:42:11.397Z,-2.23
2018-03-03T18:44:40.688Z,-2.33
2018-03-03T18:47:10.394Z,-2.42
2018-03-03T18:49:40.922Z,-2.48
2018-03-03T18:52:11.898Z,-2.58
2018-03-03T18:54:42.841Z,-2.62
2018-03-03T18:57:13.645Z,-2.70
2018-03-03T18:59:45.312Z,-2.39
2018-03-03T19:02:15.869Z,-1.28
2018-03-03T19:04:46.882Z,-1.47
2018-03-03T19:07:17.368Z,-1.79
2018-03-03T19:09:47.931Z,-2.07
2018-03-03T19:12:18.791Z,-2.27
2018-03-03T19:14:49.851Z,-2.42
2018-03-03T19:17:21.004Z,-2.52
2018-03-03T19:19:52.033Z,-2.63
2018-03-03T19:22:22.911Z,-2.74
2018-03-03T19:24:53.868Z,-2.83
2018-03-03T19:27:24.709Z,-2.92
2018-03-03T19:29:55.708Z,-2.98
2018-03-03T19:32:27.046Z,-3.03
2018-03-03T19:34:58.022Z,-3.11
2018-03-03T19:37:28.833Z,-3.18
2018-03-03T19:39:59.721Z,-3.27
2018-03-03T19:42:30.610Z,-3.34
2018-03-03T19:45:01.982Z,-3.39
2018-03-03T19:47:32.858Z,-3.38
2018-03-03T19:50:03.817Z,-3.38
2018-03-03T19:52:34.373Z,-3.46
2018-03-03T19:55:04.929Z,-3.50
2018-03-03T19:57:35.724Z,-3.55
2018-03-03T20:00:06.716Z,-3.60
2018-03-03T20:02:37.630Z,-3.66
2018-03-03T20:05:16.316Z,-3.73
2018-03-03T20:10:49.783Z,-3.89
2018-03-03T20:13:19.253Z,-3.97
2018-03-03T20:15:48.273Z,-4.03
2018-03-03T20:18:19.565Z,-4.10
2018-03-03T20:20:48.702Z,-4.16
2018-03-03T20:23:17.710Z,-4.19
2018-03-03T20:25:46.742Z,-4.23
2018-03-03T20:28:15.757Z,-4.28
2018-03-03T20:30:44.785Z,-4.33
2018-03-03T20:33:13.971Z,-4.39
2018-03-03T20:35:42.780Z,-4.44
2018-03-03T20:38:11.694Z,-4.49
2018-03-03T20:40:40.708Z,-4.54
2018-03-03T20:43:09.832Z,-4.59
2018-03-03T20:45:39.056Z,-4.63
2018-03-03T20:48:08.366Z,-4.66
2018-03-03T20:50:37.479Z,-4.71
2018-03-03T20:53:06.606Z,-4.77
2018-03-03T20:55:35.777Z,-4.81
2018-03-03T20:58:05.020Z,-4.82
2018-03-03T21:00:34.115Z,-4.83
2018-03-03T21:03:03.370Z,-4.87
2018-03-03T21:05:32.487Z,-4.89
2018-03-03T21:08:02.928Z,-4.91
2018-03-03T21:10:33.762Z,-4.95
2018-03-03T21:13:04.496Z,-4.96
2018-03-03T21:15:35.908Z,-5.00
2018-03-03T21:18:06.833Z,-5.02
2018-03-03T21:20:37.778Z,-5.05
2018-03-03T21:23:08.656Z,-5.08
2018-03-03T21:25:39.598Z,-5.12
2018-03-03T21:28:11.753Z,-5.17
2018-03-03T21:30:42.341Z,-5.22
2018-03-03T21:33:12.925Z,-5.29
2018-03-03T21:35:43.867Z,-5.33
2018-03-03T21:38:14.749Z,-5.37
2018-03-03T21:40:45.910Z,-5.41
2018-03-03T21:43:16.748Z,-5.46
2018-03-03T21:45:47.769Z,-5.49
2018-03-03T21:48:18.623Z,-5.52
2018-03-03T21:50:49.916Z,-5.56
2018-03-03T21:53:21.232Z,-5.60
2018-03-03T21:55:52.645Z,-5.65
2018-03-03T21:58:23.388Z,-5.67
2018-03-03T22:04:21.996Z,-5.75
2018-03-03T22:06:51.192Z,-5.81
2018-03-03T22:09:20.383Z,-5.85
2018-03-03T22:11:49.950Z,-5.90
2018-03-03T22:14:19.226Z,-5.94
2018-03-03T22:16:48.851Z,-5.97
2018-03-03T22:19:18.068Z,-6.02
2018-03-03T22:21:46.904Z,-6.02
2018-03-03T22:24:15.954Z,-6.05
2018-03-03T22:26:44.888Z,-6.09
2018-03-03T22:29:14.448Z,-6.11
2018-03-03T22:31:44.754Z,-6.12
2018-03-03T22:34:15.216Z,-6.15
2018-03-03T22:36:44.296Z,-6.15
2018-03-03T22:39:13.335Z,-6.20
2018-03-03T22:41:42.463Z,-6.25
2018-03-03T22:44:11.672Z,-6.28
2018-03-03T22:46:41.105Z,-6.32
2018-03-03T22:49:10.567Z,-6.37
2018-03-03T22:51:39.880Z,-6.37
2018-03-03T22:54:08.875Z,-6.43
2018-03-03T22:56:38.009Z,-6.45
2018-03-03T22:59:07.449Z,-6.46
2018-03-03T23:01:36.624Z,-6.47
2018-03-03T23:04:05.537Z,-6.50
2018-03-03T23:06:36.039Z,-6.52
2018-03-03T23:09:04.484Z,-6.54
2018-03-03T23:11:33.795Z,-6.56
2018-03-03T23:14:03.120Z,-6.59
2018-03-03T23:16:32.339Z,-6.62
2018-03-03T23:19:01.531Z,-6.67
2018-03-03T23:21:30.679Z,-6.68
2018-03-03T23:23:59.992Z,-6.70
2018-03-03T23:26:29.713Z,-6.75
2018-03-03T23:28:58.870Z,-6.75
2018-03-03T23:31:29.154Z,-6.79
2018-03-03T23:33:58.455Z,-6.83
2018-03-03T23:36:30.000Z,-6.87
2018-03-03T23:38:59.676Z,-6.91
2018-03-03T23:41:31.273Z,-6.97
2018-03-03T23:44:02.426Z,-7.06
2018-03-03T23:46:32.661Z,-7.04
2018-03-03T23:49:03.966Z,-7.07
2018-03-03T23:51:34.555Z,-7.13
2018-03-03T23:54:05.240Z,-7.17
2018-03-03T23:56:37.763Z,-7.19
2018-03-03T23:59:07.327Z,-7.19
